KHBG

Hattiesburg Bobby L Chain Municipal Airport

Hattiesburg, Mississippi, USA
METAR KHBG 180819Z AUTO 00000KT 3/4SM BR VV004 14/14 A3015 RMK AO2 LTG DSNT W T01440144
Observed Flight Rules
Dec-18 @ 08:19 UTC (27 minutes ago) Instrument Flight Rules
Wind Visibility Clouds Conditions
Calm 3/4 miles
  • Vertical visibility at 400' AGL
  • Mist
Temperatures Readings
Current 14°C / 57°F
Dewpoint 14°C / 57°F
Humidity 100%
Altimeter 30.15" Hg
Pressure 1021 hPa
Elevation 44
METAR KHBG 180819Z AUTO 00000KT 3/4SM BR VV004 14/14 A3015 RMK AO2 LTG DSNT W T01440144
Observed Flight Rules
Dec-18 @ 08:19 UTC
(27 minutes ago)
LIFR
Wind Visibility
Calm 3/4 miles
Clouds
  • Vertical visibility at 400' AGL
Conditions
  • Mist
Temperature Dewpoint
14°C / 57°F 14°C / 57°F
Humidity Altimeter Pressure
100% 30.15" Hg 1021 hPa